Terminal Aerodrome Forecast
Issued by NWS

Home | Current Version | Previous Version | Text Only | Print | Product List | Glossary On
Versions: 1 2 3 4 5 6 7 8 9 10 11 12 13 14 15
000
FTUS45 KABQ 161700
TAFSAF
TAF
KSAF 161735Z 1618/1718 14006KT P6SM FEW025 BKN120
     FM162000 17008KT P6SM VCTS BKN045CB BKN080
     FM170100 13006KT P6SM VCSH BKN035 BKN070
     FM170800 VRB06KT P6SM BKN025 BKN070=

USA.gov is the U.S. government's official web portal to all federal, state and local government web resources and services.